createdAt,value
2018-01-12T00:00:28.016Z,94.13
2018-01-12T00:01:37.954Z,94.04
2018-01-12T00:02:47.646Z,94.04
2018-01-12T00:03:57.589Z,93.94
2018-01-12T00:05:07.533Z,94.04
2018-01-12T00:06:17.503Z,94.51
2018-01-12T00:07:27.440Z,93.84
2018-01-12T00:08:37.388Z,93.75
2018-01-12T00:09:47.336Z,93.37
2018-01-12T00:10:57.036Z,93.84
2018-01-12T00:12:06.738Z,93.65
2018-01-12T00:13:16.710Z,94.13
2018-01-12T00:14:26.653Z,93.84
2018-01-12T00:15:36.597Z,93.84
2018-01-12T00:16:46.544Z,93.94
2018-01-12T00:17:56.497Z,94.32
2018-01-12T00:19:06.442Z,94.04
2018-01-12T00:20:16.126Z,94.13
2018-01-12T00:21:26.334Z,94.13
2018-01-12T00:22:36.280Z,93.75
2018-01-12T00:23:46.228Z,93.18
2018-01-12T00:24:56.167Z,93.56
2018-01-12T00:26:05.861Z,93.27
2018-01-12T00:27:15.805Z,93.56
2018-01-12T00:28:25.486Z,93.08
2018-01-12T00:29:35.430Z,93.08
2018-01-12T00:30:45.363Z,93.18
2018-01-12T00:31:55.309Z,93.08
2018-01-12T00:33:05.003Z,93.46
2018-01-12T00:34:14.955Z,93.27
2018-01-12T00:35:24.911Z,94.6
2018-01-12T00:36:34.597Z,94.13
2018-01-12T00:37:44.548Z,94.32
2018-01-12T00:38:54.500Z,94.23
2018-01-12T00:40:04.479Z,93.84
2018-01-12T00:41:13.908Z,93.94
2018-01-12T00:42:23.596Z,93.84
2018-01-12T00:43:33.292Z,93.94
2018-01-12T00:44:42.985Z,94.04
2018-01-12T00:45:52.939Z,94.13
2018-01-12T00:47:02.888Z,93.84
2018-01-12T00:48:12.572Z,94.23
2018-01-12T00:49:22.263Z,94.23
2018-01-12T00:50:32.216Z,94.7
2018-01-12T00:51:42.170Z,94.32
2018-01-12T00:52:52.125Z,94.13
2018-01-12T00:54:01.821Z,93.75
2018-01-12T00:55:11.788Z,93.75
2018-01-12T00:56:21.481Z,93.94
2018-01-12T00:57:31.435Z,93.84
2018-01-12T00:58:40.868Z,94.13
2018-01-12T00:59:50.813Z,93.56
2018-01-12T01:01:00.757Z,94.04
2018-01-12T01:02:10.503Z,94.32
2018-01-12T01:03:20.191Z,93.84
2018-01-12T01:04:29.618Z,94.13
2018-01-12T01:05:39.569Z,93.84
2018-01-12T01:06:49.523Z,93.65
2018-01-12T01:07:59.218Z,93.84
2018-01-12T01:09:09.174Z,93.94
2018-01-12T01:10:19.120Z,93.84
2018-01-12T01:11:29.063Z,93.94
2018-01-12T01:12:39.010Z,92.8
2018-01-12T01:13:48.706Z,93.27
2018-01-12T01:14:58.420Z,93.18
2018-01-12T01:16:08.371Z,93.27
2018-01-12T01:17:18.386Z,92.99
2018-01-12T01:18:28.073Z,93.08
2018-01-12T01:19:37.764Z,93.18
2018-01-12T01:20:47.725Z,93.37
2018-01-12T01:21:57.681Z,93.18
2018-01-12T01:23:07.628Z,92.99
2018-01-12T01:24:17.580Z,93.08
2018-01-12T01:25:27.536Z,93.18
2018-01-12T01:26:37.542Z,93.08
2018-01-12T01:27:47.485Z,93.23
2018-01-12T01:28:57.432Z,93.13
2018-01-12T01:30:07.385Z,93.18
2018-01-12T01:31:17.083Z,93.27
2018-01-12T01:32:27.034Z,93.42
2018-01-12T01:33:36.975Z,92.85
2018-01-12T01:34:46.920Z,93.04
2018-01-12T01:35:56.603Z,93.08
2018-01-12T01:37:06.554Z,93.18
2018-01-12T01:38:16.500Z,92.94
2018-01-12T01:39:26.454Z,93.42
2018-01-12T01:40:36.394Z,92.94
2018-01-12T01:41:46.345Z,93.23
2018-01-12T01:42:56.291Z,93.18
2018-01-12T01:44:05.977Z,92.94
2018-01-12T01:45:15.666Z,93.32
2018-01-12T01:46:25.346Z,93.04
2018-01-12T01:47:34.780Z,92.9
2018-01-12T01:48:44.721Z,93.42
2018-01-12T01:49:54.675Z,93.23
2018-01-12T01:51:04.639Z,93.61
2018-01-12T01:52:14.343Z,93.04
2018-01-12T01:53:24.291Z,93.23
2018-01-12T01:54:34.237Z,92.99
2018-01-12T01:55:44.183Z,93.04
2018-01-12T01:56:53.877Z,93.23
2018-01-12T01:58:03.821Z,93.27
2018-01-12T01:59:13.759Z,93.18
2018-01-12T02:00:23.706Z,92.9
2018-01-12T02:01:33.649Z,93.56
2018-01-12T02:02:43.587Z,93.18
2018-01-12T02:03:53.577Z,93.8
2018-01-12T02:05:03.536Z,93.32
2018-01-12T02:06:13.470Z,93.27
2018-01-12T02:07:23.150Z,93.8
2018-01-12T02:08:33.096Z,93.08
2018-01-12T02:09:42.803Z,93.27
2018-01-12T02:10:52.756Z,93.94
2018-01-12T02:12:02.697Z,93.18
2018-01-12T02:13:12.190Z,93.04
2018-01-12T02:14:21.627Z,93.27
2018-01-12T02:15:31.572Z,93.27
2018-01-12T02:16:41.525Z,94.13
2018-01-12T02:17:51.467Z,93.56
2018-01-12T02:19:01.403Z,93.65
2018-01-12T02:20:11.345Z,94.13
2018-01-12T02:21:21.040Z,93.8
2018-01-12T02:22:30.992Z,93.75
2018-01-12T02:23:40.943Z,94.23
2018-01-12T02:24:50.890Z,93.75
2018-01-12T02:26:00.842Z,93.94
2018-01-12T02:27:10.791Z,93.94
2018-01-12T02:28:20.742Z,93.75
2018-01-12T02:29:30.425Z,94.04
2018-01-12T02:30:40.106Z,93.94
2018-01-12T02:31:50.071Z,93.94
2018-01-12T02:32:59.786Z,94.04
2018-01-12T02:34:09.505Z,94.23
2018-01-12T02:35:19.198Z,94.23
2018-01-12T02:36:29.151Z,94.23
2018-01-12T02:37:39.111Z,94.13
2018-01-12T02:38:48.814Z,95.17
2018-01-12T02:39:58.501Z,94.7
2018-01-12T02:41:08.193Z,94.79
2018-01-12T02:42:18.141Z,94.98
2018-01-12T02:43:27.850Z,94.79
2018-01-12T02:44:37.797Z,93.94
2018-01-12T02:45:47.743Z,94.04
2018-01-12T02:46:57.451Z,94.79
2018-01-12T02:48:07.134Z,94.79
2018-01-12T02:49:17.078Z,94.42
2018-01-12T02:50:26.516Z,94.23
2018-01-12T02:51:36.208Z,94.42
2018-01-12T02:52:46.153Z,94.79
2018-01-12T02:53:56.096Z,94.89
2018-01-12T02:55:06.048Z,94.89
2018-01-12T02:56:16.014Z,94.6
2018-01-12T02:57:25.704Z,94.23
2018-01-12T02:58:35.662Z,94.98
2018-01-12T02:59:45.613Z,94.7
2018-01-12T03:00:55.617Z,94.56
2018-01-12T03:02:05.593Z,94.84
2018-01-12T03:03:15.539Z,94.42
2018-01-12T03:04:25.232Z,94.93
2018-01-12T03:05:35.180Z,94.74
2018-01-12T03:06:45.352Z,94.84
2018-01-12T03:07:55.047Z,94.56
2018-01-12T03:09:05.005Z,94.08
2018-01-12T03:10:14.954Z,94.93
2018-01-12T03:11:24.647Z,95.21
2018-01-12T03:12:34.591Z,94.74
2018-01-12T03:13:44.298Z,94.74
2018-01-12T03:14:53.972Z,94.84
2018-01-12T03:16:03.658Z,94.79
2018-01-12T03:17:13.609Z,94.93
2018-01-12T03:18:23.568Z,94.84
2018-01-12T03:19:33.530Z,94.84
2018-01-12T03:20:43.477Z,94.74
2018-01-12T03:21:53.422Z,94.84
2018-01-12T03:23:03.358Z,94.84
2018-01-12T03:24:13.045Z,94.74
2018-01-12T03:25:22.733Z,95.03
2018-01-12T03:26:32.687Z,94.74
2018-01-12T03:27:42.376Z,94.18
2018-01-12T03:28:52.076Z,94.74
2018-01-12T03:30:02.038Z,94.18
2018-01-12T03:31:11.814Z,94.27
2018-01-12T03:32:21.537Z,94.08
2018-01-12T03:33:31.223Z,94.93
2018-01-12T03:34:41.176Z,94.37
2018-01-12T03:35:51.123Z,94.18
2018-01-12T03:37:01.065Z,93.89
2018-01-12T03:38:10.779Z,94.65
2018-01-12T03:39:20.471Z,93.99
2018-01-12T03:40:30.414Z,94.65
2018-01-12T03:41:40.421Z,94.65
2018-01-12T03:42:50.372Z,94.27
2018-01-12T03:44:00.315Z,93.89
2018-01-12T03:45:10.267Z,94.74
2018-01-12T03:46:20.206Z,94.74
2018-01-12T03:47:30.148Z,95.03
2018-01-12T03:48:39.832Z,94.27
2018-01-12T03:49:49.777Z,95.03
2018-01-12T03:50:59.715Z,94.18
2018-01-12T03:52:09.667Z,94.93
2018-01-12T03:53:19.354Z,94.84
2018-01-12T03:54:29.295Z,94.37
2018-01-12T03:55:39.232Z,94.74
2018-01-12T03:56:48.665Z,94.65
2018-01-12T03:57:58.353Z,94.89
2018-01-12T03:59:08.301Z,94.84
2018-01-12T04:00:17.743Z,95.31
2018-01-12T04:01:27.427Z,94.84
2018-01-12T04:02:37.110Z,94.84
2018-01-12T04:03:47.045Z,94.84
2018-01-12T04:04:56.726Z,94.74
2018-01-12T04:06:06.676Z,95.12
2018-01-12T04:07:16.626Z,94.08
2018-01-12T04:08:26.591Z,94.74
2018-01-12T04:09:36.539Z,94.93
2018-01-12T04:10:46.241Z,94.37
2018-01-12T04:11:56.193Z,95.03
2018-01-12T04:13:06.154Z,94.65
2018-01-12T04:14:16.092Z,93.99
2018-01-12T04:15:25.524Z,93.8
2018-01-12T04:16:35.465Z,93.99
2018-01-12T04:17:45.417Z,94.18
2018-01-12T04:18:55.377Z,94.18
2018-01-12T04:20:05.332Z,94.84
2018-01-12T04:21:15.037Z,94.18
2018-01-12T04:22:24.994Z,93.99
2018-01-12T04:23:34.935Z,94.18
2018-01-12T04:24:44.637Z,93.99
2018-01-12T04:25:54.590Z,94.74
2018-01-12T04:27:04.579Z,93.99
2018-01-12T04:28:14.240Z,94.37
2018-01-12T04:29:24.187Z,94.37
2018-01-12T04:30:34.142Z,94.37
2018-01-12T04:31:44.078Z,94.37
2018-01-12T04:32:53.768Z,94.37
2018-01-12T04:34:03.464Z,94.27
2018-01-12T04:35:13.572Z,94.37
2018-01-12T04:36:23.274Z,94.18
2018-01-12T04:37:33.213Z,94.18
2018-01-12T04:38:42.914Z,94.08
2018-01-12T04:39:52.855Z,94.27
2018-01-12T04:41:02.802Z,94.37
2018-01-12T04:42:12.748Z,93.8
2018-01-12T04:43:22.694Z,94.18
2018-01-12T04:44:32.627Z,94.18
2018-01-12T04:45:42.578Z,93.89
2018-01-12T04:46:52.525Z,93.8
2018-01-12T04:48:01.968Z,94.08
2018-01-12T04:49:11.410Z,93.51
2018-01-12T04:50:21.098Z,93.8
2018-01-12T04:51:30.793Z,94.56
2018-01-12T04:52:40.281Z,93.89
2018-01-12T04:53:49.990Z,93.7
2018-01-12T04:54:59.940Z,93.99
2018-01-12T04:56:09.888Z,93.89
2018-01-12T04:57:19.331Z,93.7
2018-01-12T04:58:29.033Z,94.08
2018-01-12T04:59:38.467Z,93.89
2018-01-12T05:00:48.191Z,93.7
2018-01-12T05:01:58.162Z,93.89
2018-01-12T05:03:08.120Z,93.99
2018-01-12T05:04:17.815Z,93.7
2018-01-12T05:05:27.783Z,93.8
2018-01-12T05:06:37.744Z,93.89
2018-01-12T05:07:47.695Z,93.89
2018-01-12T05:08:57.401Z,93.7
2018-01-12T05:10:07.370Z,93.7
2018-01-12T05:11:17.324Z,93.61
2018-01-12T05:12:27.283Z,93.13
2018-01-12T05:13:37.245Z,93.42
2018-01-12T05:14:47.209Z,93.89
2018-01-12T05:15:57.171Z,93.42
2018-01-12T05:17:06.878Z,93.13
2018-01-12T05:18:16.589Z,93.42
2018-01-12T05:19:26.547Z,93.42
2018-01-12T05:20:36.506Z,93.13
2018-01-12T05:21:46.460Z,93.42
2018-01-12T05:22:56.464Z,94.08
2018-01-12T05:24:06.430Z,94.08
2018-01-12T05:25:16.118Z,93.7
2018-01-12T05:26:25.555Z,93.89
2018-01-12T05:27:35.507Z,93.89
2018-01-12T05:28:45.203Z,93.8
2018-01-12T05:29:55.155Z,94.08
2018-01-12T05:31:05.096Z,94.37
2018-01-12T05:32:15.048Z,94.27
2018-01-12T05:33:25.005Z,93.61
2018-01-12T05:34:34.951Z,93.8
2018-01-12T05:35:44.922Z,93.7
2018-01-12T05:36:54.607Z,93.7
2018-01-12T05:38:04.306Z,93.8
2018-01-12T05:39:14.269Z,93.7
2018-01-12T05:40:23.965Z,93.89
2018-01-12T05:41:33.970Z,93.8
2018-01-12T05:42:43.929Z,93.8
2018-01-12T05:43:53.628Z,93.99
2018-01-12T05:45:03.315Z,93.7
2018-01-12T05:46:13.259Z,94.46
2018-01-12T05:47:22.969Z,94.27
2018-01-12T05:48:32.922Z,94.08
2018-01-12T05:49:42.871Z,94.27
2018-01-12T05:50:52.822Z,94.27
2018-01-12T05:52:02.521Z,94.74
2018-01-12T05:53:12.468Z,94.93
2018-01-12T05:54:21.909Z,94.84
2018-01-12T05:55:31.866Z,94.08
2018-01-12T05:56:41.815Z,94.37
2018-01-12T05:57:51.253Z,94.56
2018-01-12T05:59:01.199Z,94.18
2018-01-12T06:00:11.145Z,94.37
2018-01-12T06:01:20.844Z,94.56
2018-01-12T06:02:30.542Z,93.61
2018-01-12T06:03:40.236Z,93.7
2018-01-12T06:04:49.939Z,93.8
2018-01-12T06:05:59.885Z,93.89
2018-01-12T06:07:09.847Z,94.37
2018-01-12T06:08:19.787Z,94.08
2018-01-12T06:09:29.736Z,94.37
2018-01-12T06:10:39.683Z,94.27
2018-01-12T06:11:49.687Z,94.18
2018-01-12T06:12:59.644Z,94.37
2018-01-12T06:14:09.661Z,94.56
2018-01-12T06:15:19.360Z,94.93
2018-01-12T06:16:29.544Z,95.03
2018-01-12T06:17:39.497Z,94.56
2018-01-12T06:18:49.190Z,94.74
2018-01-12T06:19:58.620Z,95.03
2018-01-12T06:21:08.619Z,95.12
2018-01-12T06:22:18.314Z,94.56
2018-01-12T06:23:28.016Z,94.65
2018-01-12T06:24:37.969Z,94.74
2018-01-12T06:25:47.434Z,94.74
2018-01-12T06:26:57.382Z,94.08
2018-01-12T06:28:07.341Z,94.18
2018-01-12T06:29:16.780Z,94.18
2018-01-12T06:30:26.735Z,94.74
2018-01-12T06:31:36.693Z,94.08
2018-01-12T06:32:46.380Z,94.65
2018-01-12T06:33:56.321Z,94.65
2018-01-12T06:35:06.266Z,94.27
2018-01-12T06:36:16.215Z,94.84
2018-01-12T06:37:26.163Z,94.65
2018-01-12T06:38:36.250Z,94.37
2018-01-12T06:39:46.218Z,94.84
2018-01-12T06:40:56.344Z,94.08
2018-01-12T06:42:06.319Z,94.18
2018-01-12T06:43:16.008Z,94.27
2018-01-12T06:44:25.958Z,94.65
2018-01-12T06:45:35.911Z,94.56
2018-01-12T06:46:45.862Z,94.84
2018-01-12T06:47:55.811Z,95.12
2018-01-12T06:49:05.516Z,94.74
2018-01-12T06:50:15.474Z,94.93
2018-01-12T06:51:25.214Z,95.03
2018-01-12T06:52:35.192Z,94.18
2018-01-12T06:53:45.143Z,94.08
2018-01-12T06:54:55.118Z,94.84
2018-01-12T06:56:05.070Z,94.56
2018-01-12T06:57:14.493Z,94.65
2018-01-12T06:58:23.930Z,94.56
2018-01-12T06:59:33.647Z,94.84
2018-01-12T07:00:43.598Z,94.56
2018-01-12T07:01:53.297Z,94.74
2018-01-12T07:03:03.266Z,94.65
2018-01-12T07:04:13.244Z,94.74
2018-01-12T07:05:23.245Z,94.74
2018-01-12T07:06:33.425Z,94.84
2018-01-12T07:07:43.411Z,94.93
2018-01-12T07:08:53.108Z,95.12
2018-01-12T07:10:03.074Z,95.88
2018-01-12T07:11:13.040Z,95.97
2018-01-12T07:12:22.993Z,96.45
2018-01-12T07:13:32.928Z,97.11
2018-01-12T07:14:42.368Z,95.59
2018-01-12T07:15:52.075Z,96.07
2018-01-12T07:17:01.778Z,96.45
2018-01-12T07:18:11.733Z,96.83
2018-01-12T07:19:21.724Z,96.54
2018-01-12T07:20:31.675Z,96.92
2018-01-12T07:21:41.378Z,96.64
2018-01-12T07:22:51.320Z,97.68
2018-01-12T07:24:01.294Z,97.49
2018-01-12T07:25:11.237Z,98.53
2018-01-12T07:26:20.676Z,98.25
2018-01-12T07:27:30.373Z,97.77
2018-01-12T07:28:40.323Z,97.77
2018-01-12T07:29:50.012Z,97.49
2018-01-12T07:30:59.717Z,97.49
2018-01-12T07:32:09.425Z,98.34
2018-01-12T07:33:19.397Z,98.63
2018-01-12T07:34:29.365Z,99.48
2018-01-12T07:35:39.329Z,98.82
2018-01-12T07:36:49.278Z,99.66
2018-01-12T07:37:59.227Z,99.66
2018-01-12T07:39:08.672Z,99.99
2018-01-12T07:40:18.368Z,99.66
2018-01-12T07:41:28.318Z,99.99
2018-01-12T07:42:38.275Z,99.99
2018-01-12T07:43:48.253Z,99.99
2018-01-12T07:44:58.209Z,99.99
2018-01-12T07:46:07.904Z,99.99
2018-01-12T07:47:17.959Z,99.99
2018-01-12T07:48:28.007Z,99.99
2018-01-12T07:49:38.002Z,99.99
2018-01-12T07:50:48.009Z,99.99
2018-01-12T07:51:57.968Z,99.99
2018-01-12T07:53:07.736Z,99.99
2018-01-12T07:54:17.696Z,99.99
2018-01-12T07:55:27.396Z,99.99
2018-01-12T07:56:37.365Z,99.99
2018-01-12T07:57:47.307Z,99.99
2018-01-12T07:58:56.734Z,99.99
2018-01-12T08:00:06.434Z,99.99
2018-01-12T08:01:16.396Z,99.99
2018-01-12T08:02:26.140Z,99.99
2018-01-12T08:03:35.853Z,99.99
2018-01-12T08:04:45.829Z,99.99
2018-01-12T08:05:55.803Z,99.99
2018-01-12T08:07:05.487Z,99.99
2018-01-12T08:08:15.453Z,99.99
2018-01-12T08:09:25.422Z,99.99
2018-01-12T08:10:35.381Z,99.99
2018-01-12T08:11:45.374Z,99.99
2018-01-12T08:12:55.356Z,99.99
2018-01-12T08:14:05.360Z,99.99
2018-01-12T08:15:15.342Z,99.99
2018-01-12T08:16:25.308Z,99.99
2018-01-12T08:17:35.274Z,99.99
2018-01-12T08:18:44.986Z,99.99
2018-01-12T08:19:54.852Z,99.99
2018-01-12T08:21:04.801Z,99.99
2018-01-12T08:22:14.498Z,99.99
2018-01-12T08:23:24.198Z,99.99
2018-01-12T08:24:33.635Z,99.99
2018-01-12T08:25:43.586Z,99.99
2018-01-12T08:26:53.276Z,99.99
2018-01-12T08:28:03.221Z,99.99
2018-01-12T08:29:13.194Z,99.99
2018-01-12T08:30:23.187Z,99.99
2018-01-12T08:31:33.157Z,99.99
2018-01-12T08:32:42.591Z,99.99
2018-01-12T08:33:52.580Z,99.99
2018-01-12T08:35:02.537Z,99.99
2018-01-12T08:36:12.542Z,99.99
2018-01-12T08:37:22.511Z,99.99
2018-01-12T08:38:32.457Z,99.99
2018-01-12T08:39:42.409Z,99.99
2018-01-12T08:40:52.093Z,99.99
2018-01-12T08:42:02.072Z,99.99
2018-01-12T08:43:11.777Z,99.99
2018-01-12T08:44:21.813Z,99.99
2018-01-12T08:45:31.238Z,99.99
2018-01-12T08:46:41.421Z,99.99
2018-01-12T08:47:51.371Z,99.99
2018-01-12T08:49:01.313Z,99.99
2018-01-12T08:50:11.262Z,99.99
2018-01-12T08:51:21.218Z,99.99
2018-01-12T08:52:31.172Z,99.99
2018-01-12T08:53:41.109Z,99.99
2018-01-12T08:54:51.057Z,99.99
2018-01-12T08:56:00.230Z,99.99
2018-01-12T08:57:10.192Z,99.99
2018-01-12T08:58:19.651Z,99.99
2018-01-12T08:59:29.338Z,99.99
2018-01-12T09:00:39.308Z,99.99
2018-01-12T09:01:49.255Z,99.99
2018-01-12T09:02:59.234Z,99.99
2018-01-12T09:04:09.190Z,99.99
2018-01-12T09:05:19.132Z,99.99
2018-01-12T09:06:29.090Z,99.99
2018-01-12T09:07:39.052Z,99.99
2018-01-12T09:08:49.010Z,99.99
2018-01-12T09:09:58.959Z,99.99
2018-01-12T09:11:08.904Z,99.99
2018-01-12T09:12:18.867Z,99.99
2018-01-12T09:13:28.815Z,99.99
2018-01-12T09:14:38.763Z,99.99
2018-01-12T09:15:48.464Z,99.99
2018-01-12T09:16:58.167Z,99.99
2018-01-12T09:18:08.153Z,99.99
2018-01-12T09:19:18.135Z,99.99
2018-01-12T09:20:28.105Z,99.99
2018-01-12T09:21:37.874Z,99.99
2018-01-12T09:22:47.518Z,99.99
2018-01-12T09:23:57.467Z,99.99
2018-01-12T09:25:07.177Z,99.99
2018-01-12T09:26:17.119Z,99.99
2018-01-12T09:27:26.839Z,99.99
2018-01-12T09:28:36.518Z,99.99
2018-01-12T09:29:46.206Z,99.99
2018-01-12T09:30:56.152Z,99.99
2018-01-12T09:32:06.115Z,99.99
2018-01-12T09:33:16.062Z,99.99
2018-01-12T09:34:26.079Z,99.99
2018-01-12T09:35:35.806Z,99.99
2018-01-12T09:36:45.769Z,99.99
2018-01-12T09:37:55.724Z,99.99
2018-01-12T09:39:05.679Z,99.99
2018-01-12T09:40:15.658Z,99.99
2018-01-12T09:41:25.609Z,99.99
2018-01-12T09:42:35.300Z,99.99
2018-01-12T09:43:45.257Z,99.99
2018-01-12T09:44:54.956Z,99.99
2018-01-12T09:46:04.927Z,99.99
2018-01-12T09:47:14.610Z,99.99
2018-01-12T09:48:24.578Z,99.99
2018-01-12T09:49:34.526Z,99.99
2018-01-12T09:50:43.956Z,99.99
2018-01-12T09:51:53.640Z,99.99
2018-01-12T09:53:03.348Z,99.99
2018-01-12T09:54:13.093Z,99.99
2018-01-12T09:55:22.784Z,99.99
2018-01-12T09:56:32.486Z,99.99
2018-01-12T09:57:42.437Z,99.99
2018-01-12T09:58:52.365Z,99.99
2018-01-12T10:00:02.354Z,99.99
2018-01-12T10:01:12.054Z,99.99
2018-01-12T10:02:21.786Z,99.99
2018-01-12T10:03:31.731Z,99.99
2018-01-12T10:04:41.701Z,99.99
2018-01-12T10:05:51.497Z,99.99
2018-01-12T10:07:01.453Z,99.99
2018-01-12T10:08:11.142Z,99.99
2018-01-12T10:09:21.093Z,99.99
2018-01-12T10:10:31.007Z,99.99
2018-01-12T10:11:40.952Z,99.99
2018-01-12T10:12:50.636Z,99.99
2018-01-12T10:14:00.627Z,99.99
2018-01-12T10:15:10.311Z,99.99
2018-01-12T10:16:20.256Z,99.99
2018-01-12T10:17:30.194Z,99.99
2018-01-12T10:18:39.871Z,99.99
2018-01-12T10:19:49.817Z,99.99
2018-01-12T10:21:00.213Z,99.99
2018-01-12T10:22:10.157Z,99.99
2018-01-12T10:23:20.162Z,99.99
2018-01-12T10:24:30.122Z,99.99
2018-01-12T10:25:40.071Z,99.99
2018-01-12T10:26:50.026Z,99.99
2018-01-12T10:27:59.998Z,99.99
2018-01-12T10:29:09.952Z,99.99
2018-01-12T10:30:19.634Z,99.99
2018-01-12T10:31:29.619Z,99.99
2018-01-12T10:32:39.577Z,99.99
2018-01-12T10:33:49.010Z,99.99
2018-01-12T10:34:59.043Z,99.99
2018-01-12T10:36:09.008Z,99.99
2018-01-12T10:37:18.947Z,99.99
2018-01-12T10:38:28.909Z,99.99
2018-01-12T10:39:38.622Z,99.99
2018-01-12T10:40:48.322Z,99.99
2018-01-12T10:41:58.328Z,99.99
2018-01-12T10:43:08.373Z,99.99
2018-01-12T10:44:18.067Z,99.99
2018-01-12T10:45:28.068Z,99.99
2018-01-12T10:46:37.939Z,99.99
2018-01-12T10:47:48.560Z,99.99
2018-01-12T10:48:59.716Z,99.99
2018-01-12T10:50:09.915Z,99.99
2018-01-12T10:51:19.878Z,99.99
2018-01-12T10:52:29.568Z,99.99
2018-01-12T10:53:39.522Z,99.99
2018-01-12T10:54:49.526Z,99.99
2018-01-12T10:55:59.478Z,99.99
2018-01-12T10:57:09.198Z,99.99
2018-01-12T10:58:19.178Z,99.99
2018-01-12T10:59:29.154Z,99.99
2018-01-12T11:00:38.887Z,99.99
2018-01-12T11:01:48.597Z,99.99
2018-01-12T11:02:58.554Z,99.99
2018-01-12T11:04:08.530Z,99.99
2018-01-12T11:05:18.206Z,99.99
2018-01-12T11:06:28.167Z,99.99
2018-01-12T11:07:37.860Z,99.99
2018-01-12T11:08:47.563Z,99.99
2018-01-12T11:09:57.524Z,99.99
2018-01-12T11:11:07.488Z,99.99
2018-01-12T11:12:17.188Z,99.99
2018-01-12T11:13:27.142Z,99.99
2018-01-12T11:14:36.860Z,99.99
2018-01-12T11:15:46.558Z,99.99
2018-01-12T11:16:56.563Z,99.99
2018-01-12T11:18:06.527Z,99.99
2018-01-12T11:19:16.487Z,99.99
2018-01-12T11:20:26.492Z,99.99
2018-01-12T11:21:36.258Z,99.99
2018-01-12T11:22:46.311Z,99.99
2018-01-12T11:23:56.507Z,99.99
2018-01-12T11:25:06.487Z,99.99
2018-01-12T11:26:17.104Z,99.99
2018-01-12T11:27:27.103Z,99.99
2018-01-12T11:28:36.795Z,99.99
2018-01-12T11:29:46.229Z,99.99
2018-01-12T11:30:56.207Z,99.99
2018-01-12T11:32:06.176Z,99.99
2018-01-12T11:33:15.968Z,99.99
2018-01-12T11:34:26.029Z,99.99
2018-01-12T11:35:36.061Z,99.99
2018-01-12T11:36:45.791Z,99.99
2018-01-12T11:37:55.738Z,99.99
2018-01-12T11:39:05.736Z,99.99
2018-01-12T11:40:15.170Z,99.99
2018-01-12T11:41:24.613Z,99.99
2018-01-12T11:42:34.314Z,99.99
2018-01-12T11:43:44.013Z,99.99
2018-01-12T11:44:54.072Z,99.99
2018-01-12T11:46:04.032Z,99.99
2018-01-12T11:47:13.993Z,99.99
2018-01-12T11:48:23.466Z,99.99
2018-01-12T11:49:33.178Z,99.99
2018-01-12T11:50:42.958Z,99.99
2018-01-12T11:51:52.942Z,99.99
2018-01-12T11:53:02.409Z,99.99
2018-01-12T11:54:12.355Z,99.99
2018-01-12T11:55:22.339Z,99.99
2018-01-12T11:56:32.327Z,99.99
2018-01-12T11:57:42.286Z,99.99
2018-01-12T11:58:52.237Z,99.99
2018-01-12T12:00:01.918Z,99.99
2018-01-12T12:01:11.892Z,99.99
2018-01-12T12:02:21.893Z,99.99
2018-01-12T12:03:31.856Z,99.99
2018-01-12T12:04:41.847Z,99.99
2018-01-12T12:05:51.798Z,99.99
2018-01-12T12:07:01.771Z,99.99
2018-01-12T12:08:11.745Z,99.99
2018-01-12T12:09:21.690Z,99.99
2018-01-12T12:10:31.631Z,99.99
2018-01-12T12:11:41.320Z,99.99
2018-01-12T12:12:51.267Z,99.99
2018-01-12T12:14:01.224Z,99.99
2018-01-12T12:15:11.191Z,99.99
2018-01-12T12:16:21.137Z,99.99
2018-01-12T12:17:31.076Z,99.99
2018-01-12T12:18:40.549Z,99.99
2018-01-12T12:19:50.254Z,99.99
2018-01-12T12:21:00.206Z,99.99
2018-01-12T12:22:09.895Z,99.99
2018-01-12T12:23:19.593Z,99.99
2018-01-12T12:24:29.539Z,99.99
2018-01-12T12:25:39.485Z,99.99
2018-01-12T12:26:49.196Z,99.99
2018-01-12T12:27:59.139Z,99.99
2018-01-12T12:29:08.836Z,99.99
2018-01-12T12:30:18.525Z,99.99
2018-01-12T12:31:28.221Z,99.99
2018-01-12T12:32:38.192Z,99.99
2018-01-12T12:33:47.880Z,99.99
2018-01-12T12:34:57.882Z,99.99
2018-01-12T12:36:07.829Z,99.99
2018-01-12T12:37:17.259Z,99.99
2018-01-12T12:38:27.249Z,99.99
2018-01-12T12:39:37.213Z,99.99
2018-01-12T12:40:47.150Z,99.99
2018-01-12T12:41:57.131Z,99.99
2018-01-12T12:43:06.561Z,99.99
2018-01-12T12:44:16.530Z,99.99
2018-01-12T12:45:26.495Z,99.99
2018-01-12T12:46:36.202Z,99.99
2018-01-12T12:47:46.164Z,99.99
2018-01-12T12:48:55.856Z,99.99
2018-01-12T12:50:05.804Z,99.99
2018-01-12T12:51:15.764Z,99.99
2018-01-12T12:52:25.462Z,99.99
2018-01-12T12:53:35.444Z,99.99
2018-01-12T12:54:45.406Z,99.99
2018-01-12T12:55:55.401Z,99.99
2018-01-12T12:57:05.353Z,99.99
2018-01-12T12:58:15.336Z,99.99
2018-01-12T12:59:25.284Z,99.99
2018-01-12T13:00:35.246Z,99.99
2018-01-12T13:01:44.959Z,99.99
2018-01-12T13:02:54.392Z,99.99
2018-01-12T13:04:04.112Z,99.99
2018-01-12T13:05:14.067Z,99.99
2018-01-12T13:06:23.770Z,99.99
2018-01-12T13:07:33.744Z,99.99
2018-01-12T13:08:43.450Z,99.99
2018-01-12T13:09:53.394Z,99.99
2018-01-12T13:11:03.371Z,99.99
2018-01-12T13:12:13.059Z,99.99
2018-01-12T13:13:23.007Z,99.99
2018-01-12T13:14:32.971Z,99.99
2018-01-12T13:15:42.934Z,99.99
2018-01-12T13:16:52.890Z,99.99
2018-01-12T13:18:02.872Z,99.99
2018-01-12T13:19:12.814Z,99.99
2018-01-12T13:20:22.513Z,99.99
2018-01-12T13:21:32.459Z,99.99
2018-01-12T13:22:42.442Z,99.99
2018-01-12T13:23:52.411Z,99.99
2018-01-12T13:25:02.113Z,99.99
2018-01-12T13:26:12.105Z,99.99
2018-01-12T13:27:21.830Z,99.99
2018-01-12T13:28:31.784Z,99.99
2018-01-12T13:29:41.728Z,99.99
2018-01-12T13:30:51.902Z,99.99
2018-01-12T13:32:01.857Z,99.99
2018-01-12T13:33:11.802Z,99.99
2018-01-12T13:34:21.836Z,99.99
2018-01-12T13:35:31.778Z,99.99
2018-01-12T13:36:42.023Z,99.99
2018-01-12T13:37:51.996Z,99.99
2018-01-12T13:39:01.949Z,99.99
2018-01-12T13:40:11.681Z,99.99
2018-01-12T13:41:21.709Z,99.99
2018-01-12T13:42:31.672Z,99.99
2018-01-12T13:43:41.147Z,99.99
2018-01-12T13:44:51.105Z,99.99
2018-01-12T13:46:00.810Z,99.99
2018-01-12T13:47:10.753Z,99.99
2018-01-12T13:48:20.703Z,99.99
2018-01-12T13:49:30.400Z,99.99
2018-01-12T13:50:40.109Z,99.99
2018-01-12T13:51:50.090Z,99.99
2018-01-12T13:53:00.060Z,99.99
2018-01-12T13:54:10.011Z,99.99
2018-01-12T13:55:19.701Z,99.99
2018-01-12T13:56:29.661Z,99.99
2018-01-12T13:57:39.638Z,99.99
2018-01-12T13:58:49.584Z,99.99
2018-01-12T13:59:59.537Z,99.99
2018-01-12T14:01:09.489Z,99.99
2018-01-12T14:02:19.485Z,99.99
2018-01-12T14:03:29.466Z,99.99
2018-01-12T14:04:39.426Z,99.99
2018-01-12T14:05:49.369Z,99.99
2018-01-12T14:06:59.072Z,99.99
2018-01-12T14:08:08.760Z,99.99
2018-01-12T14:09:18.941Z,99.99
2018-01-12T14:10:28.389Z,99.99
2018-01-12T14:11:37.838Z,99.99
2018-01-12T14:12:47.791Z,99.99
2018-01-12T14:13:57.483Z,99.99
2018-01-12T14:15:07.423Z,99.99
2018-01-12T14:16:17.130Z,99.99
2018-01-12T14:17:27.076Z,99.99
2018-01-12T14:18:36.774Z,99.99
2018-01-12T14:19:46.474Z,99.99
2018-01-12T14:20:56.153Z,99.99
2018-01-12T14:22:06.102Z,99.99
2018-01-12T14:23:16.040Z,99.99
2018-01-12T14:24:25.737Z,99.99
2018-01-12T14:25:35.686Z,99.99
2018-01-12T14:26:45.689Z,99.99
2018-01-12T14:27:55.138Z,99.99
2018-01-12T14:29:05.088Z,99.99
2018-01-12T14:30:15.040Z,99.99
2018-01-12T14:31:24.988Z,99.99
2018-01-12T14:32:34.720Z,99.99
2018-01-12T14:33:44.189Z,99.99
2018-01-12T14:34:54.142Z,99.99
2018-01-12T14:36:03.832Z,99.99
2018-01-12T14:37:13.777Z,99.99
2018-01-12T14:38:23.818Z,99.99
2018-01-12T14:39:33.883Z,99.99
2018-01-12T14:40:43.843Z,99.99
2018-01-12T14:41:53.787Z,99.99
2018-01-12T14:43:03.478Z,99.99
2018-01-12T14:44:13.451Z,99.99
2018-01-12T14:45:23.496Z,99.99
2018-01-12T14:46:33.457Z,99.99
2018-01-12T14:47:43.140Z,99.99
2018-01-12T14:48:53.077Z,99.99
2018-01-12T14:50:02.771Z,99.99
2018-01-12T14:51:12.725Z,99.99
2018-01-12T14:52:22.678Z,99.99
2018-01-12T14:53:32.618Z,99.99
2018-01-12T14:54:42.308Z,99.99
2018-01-12T14:55:52.006Z,99.99
2018-01-12T14:57:01.704Z,99.99
2018-01-12T14:58:11.464Z,99.99
2018-01-12T14:59:21.430Z,99.99
2018-01-12T15:00:31.367Z,99.99